Time;durP1;ratioP1;P1;durP2;ratioP2;P2;SDS_P1;SDS_P2;PMS_P1;PMS_P2;Temp;Humidity;BMP_temperature;BMP_pressure;BME280_temperature;BME280_humidity;BME280_pressure;Samples;Min_cycle;Max_cycle;Signal;HPM_P1;HPM_P2
2024/01/07 00:02:32;;;;;;;5.83;5.23;;;;;;;22.09;34.33;93558.81;6183634;28;109063;-60
2024/01/07 00:05:37;;;;;;;6.10;5.30;;;;;;;22.08;34.76;93554.59;6170160;28;109213;-60
2024/01/07 00:08:40;;;;;;;5.63;5.00;;;;;;;22.08;34.58;93541.28;6156230;28;110366;-59
2024/01/07 00:11:43;;;;;;;5.23;4.73;;;;;;;22.07;34.37;93528.28;6172775;28;109166;-60
2024/01/07 00:14:47;;;;;;;5.83;5.20;;;;;;;22.08;34.42;93514.63;6163520;28;109069;-60
2024/01/07 00:17:51;;;;;;;5.10;4.60;;;;;;;22.07;34.43;93513.09;6180118;28;110199;-59
2024/01/07 00:20:54;;;;;;;5.70;4.60;;;;;;;22.08;34.38;93519.97;6161771;28;109109;-59
2024/01/07 00:23:57;;;;;;;5.20;4.70;;;;;;;22.14;34.52;93517.03;6172033;28;109221;-59
2024/01/07 00:27:00;;;;;;;5.33;4.83;;;;;;;22.18;34.64;93520.56;6188095;28;109986;-60
2024/01/07 00:30:06;;;;;;;4.63;4.20;;;;;;;22.19;34.52;93508.81;6172883;28;109120;-60
2024/01/07 00:33:09;;;;;;;5.33;4.83;;;;;;;22.16;34.41;93490.81;6186067;28;111235;-59
2024/01/07 00:36:12;;;;;;;5.20;4.60;;;;;;;22.14;34.77;93477.06;6169892;28;110179;-67
2024/01/07 00:39:15;;;;;;;5.30;4.40;;;;;;;22.13;34.54;93483.50;6163112;28;110159;-59
2024/01/07 00:42:18;;;;;;;5.40;4.77;;;;;;;22.11;34.61;93478.53;6152168;28;110541;-60
2024/01/07 00:45:23;;;;;;;5.17;4.37;;;;;;;22.09;35.00;93464.78;6185458;28;109428;-59
2024/01/07 00:48:26;;;;;;;5.90;4.83;;;;;;;22.09;34.63;93454.13;6177868;28;109370;-60
2024/01/07 00:51:29;;;;;;;4.53;4.10;;;;;;;22.08;34.71;93444.59;6169817;28;109238;-60
2024/01/07 00:54:32;;;;;;;5.03;4.53;;;;;;;22.07;35.09;93440.38;6176447;28;109622;-60
2024/01/07 00:57:35;;;;;;;5.73;4.20;;;;;;;22.05;34.80;93440.72;6177521;28;109199;-59
2024/01/07 01:00:40;;;;;;;4.77;4.30;;;;;;;22.06;35.03;93442.28;6166543;28;109259;-59
2024/01/07 01:03:44;;;;;;;4.93;4.40;;;;;;;22.06;35.07;93452.16;6169561;28;109944;-59
2024/01/07 01:06:47;;;;;;;4.80;4.30;;;;;;;22.06;34.58;93442.28;6175360;28;110152;-60
2024/01/07 01:09:51;;;;;;;6.53;4.40;;;;;;;22.07;35.01;93427.84;6177329;28;109245;-59
2024/01/07 01:12:54;;;;;;;4.90;4.50;;;;;;;22.06;34.79;93420.97;6166899;28;110202;-60
2024/01/07 01:15:58;;;;;;;5.00;4.50;;;;;;;22.07;34.83;93409.19;6171968;28;110540;-60
2024/01/07 01:19:01;;;;;;;4.80;4.23;;;;;;;22.07;34.39;93413.75;6178391;28;109716;-59
2024/01/07 01:22:05;;;;;;;4.73;4.33;;;;;;;22.06;34.80;93398.88;6175627;28;109213;-59
2024/01/07 01:25:08;;;;;;;5.00;4.50;;;;;;;22.03;34.52;93388.94;6163181;28;110174;-60
2024/01/07 01:28:11;;;;;;;4.13;3.70;;;;;;;22.06;34.63;93393.56;6154265;28;109111;-60
2024/01/07 01:31:16;;;;;;;4.83;4.20;;;;;;;22.05;34.29;93387.47;6184055;28;110233;-60
2024/01/07 01:34:19;;;;;;;4.97;4.50;;;;;;;22.04;34.96;93380.59;6180286;28;109526;-60
2024/01/07 01:37:22;;;;;;;5.93;4.53;;;;;;;22.05;34.21;93378.69;6163441;28;109315;-60
2024/01/07 01:40:25;;;;;;;4.30;3.90;;;;;;;22.05;34.55;93365.38;6156807;28;109229;-61
2024/01/07 01:43:29;;;;;;;5.53;5.03;;;;;;;22.03;34.26;93352.41;6162884;28;109256;-60
2024/01/07 01:46:34;;;;;;;5.47;4.77;;;;;;;22.02;34.31;93361.53;6162004;28;109151;-59
2024/01/07 01:49:38;;;;;;;5.40;4.90;;;;;;;22.02;34.76;93329.56;6158328;28;110177;-60
2024/01/07 01:52:42;;;;;;;6.83;5.30;;;;;;;22.01;34.85;93324.56;6184244;28;109202;-59
2024/01/07 01:55:45;;;;;;;5.80;5.10;;;;;;;22.02;34.74;93310.91;6176701;28;109032;-60
2024/01/07 01:58:48;;;;;;;5.97;5.37;;;;;;;22.01;34.26;93322.69;6170988;28;110095;-59
2024/01/07 02:01:53;;;;;;;5.93;5.43;;;;;;;22.03;34.68;93312.47;6151193;28;110301;-58
2024/01/07 02:04:56;;;;;;;9.60;5.87;;;;;;;22.03;34.41;93309.03;6166969;28;110327;-59
2024/01/07 02:08:00;;;;;;;6.10;5.50;;;;;;;22.04;34.56;93321.22;6177037;28;110257;-59
2024/01/07 02:11:15;;;;;;;5.77;5.17;;;;;;;22.04;34.25;93327.31;6164803;28;111240;-59
2024/01/07 02:14:18;;;;;;;6.13;5.53;;;;;;;22.04;34.50;93316.66;6161390;28;110106;-65
2024/01/07 02:17:23;;;;;;;6.57;5.97;;;;;;;22.04;34.05;93313.22;6181607;28;109279;-59
2024/01/07 02:20:26;;;;;;;5.60;5.10;;;;;;;22.04;34.12;93291.91;6164019;28;110178;-59
2024/01/07 02:23:29;;;;;;;5.63;5.13;;;;;;;22.01;34.57;93272.09;6166324;28;110166;-59
2024/01/07 02:26:34;;;;;;;5.50;5.00;;;;;;;22.01;34.38;93250.78;6159077;28;109084;-59
2024/01/07 02:29:37;;;;;;;6.57;5.90;;;;;;;22.00;34.35;93243.88;6170921;28;109449;-59
2024/01/07 02:32:40;;;;;;;5.37;4.87;;;;;;;21.99;34.14;93223.69;6163903;28;108973;-60
2024/01/07 02:35:43;;;;;;;5.90;5.10;;;;;;;21.98;34.13;93230.13;6163171;28;109377;-59
2024/01/07 02:38:46;;;;;;;6.43;5.83;;;;;;;21.97;34.02;93233.94;6184369;28;109243;-59
2024/01/07 02:41:51;;;;;;;6.07;5.50;;;;;;;21.99;34.41;93238.91;6185517;28;110098;-59
2024/01/07 02:44:54;;;;;;;5.60;5.10;;;;;;;21.98;34.00;93235.47;6185610;28;110330;-59
2024/01/07 02:47:57;;;;;;;5.40;4.97;;;;;;;21.97;34.06;93241.91;6173129;28;110765;-59
2024/01/07 02:51:00;;;;;;;5.63;5.13;;;;;;;22.00;34.08;93240.44;6163336;28;109213;-59
2024/01/07 02:54:03;;;;;;;5.10;4.70;;;;;;;22.01;34.17;93249.97;6161166;28;110131;-59
2024/01/07 02:57:07;;;;;;;5.93;5.33;;;;;;;22.00;34.53;93249.19;6158291;28;109229;-60
2024/01/07 03:00:11;;;;;;;6.70;6.00;;;;;;;22.01;34.06;93253.44;6155126;28;109420;-59
2024/01/07 03:03:14;;;;;;;5.50;5.00;;;;;;;22.01;34.36;93253.44;6160603;28;110203;-60
2024/01/07 03:06:17;;;;;;;5.90;5.40;;;;;;;22.02;34.38;93249.66;6159613;28;112470;-60
2024/01/07 03:09:21;;;;;;;6.13;5.40;;;;;;;22.01;34.47;93237.47;6151012;28;110462;-60
2024/01/07 03:12:25;;;;;;;5.70;5.20;;;;;;;22.00;34.25;93240.44;6160003;28;110172;-60
2024/01/07 03:15:28;;;;;;;7.23;5.77;;;;;;;22.00;34.56;93246.53;6160066;28;109258;-63
2024/01/07 03:18:31;;;;;;;6.40;5.80;;;;;;;21.99;34.41;93253.00;6177466;28;109341;-59
2024/01/07 03:21:35;;;;;;;6.07;5.43;;;;;;;21.97;34.51;93257.13;6174101;28;110535;-59
2024/01/07 03:24:38;;;;;;;5.80;5.30;;;;;;;21.98;34.45;93264.75;6159602;28;109106;-59
2024/01/07 03:27:43;;;;;;;5.83;5.23;;;;;;;21.96;34.43;93264.34;6160124;28;109036;-60
2024/01/07 03:30:46;;;;;;;6.00;5.40;;;;;;;21.98;34.12;93261.31;6160302;28;109454;-59
2024/01/07 03:33:49;;;;;;;6.23;5.10;;;;;;;21.97;34.28;93251.78;6158012;28;109925;-75
2024/01/07 03:36:52;;;;;;;5.80;5.30;;;;;;;21.98;34.32;93250.69;6160585;28;109154;-60
2024/01/07 03:39:55;;;;;;;6.03;5.20;;;;;;;21.98;34.35;93248.00;6160252;28;109387;-59
2024/01/07 03:43:00;;;;;;;5.73;5.13;;;;;;;21.98;34.15;93253.34;6169539;28;109075;-60
2024/01/07 03:46:03;;;;;;;6.10;5.50;;;;;;;21.98;34.23;93238.13;6154328;28;109095;-60
2024/01/07 03:49:06;;;;;;;7.00;5.20;;;;;;;21.99;34.08;93244.22;6164582;28;110356;-59
2024/01/07 03:52:10;;;;;;;5.20;4.70;;;;;;;22.00;34.54;93235.88;6179321;28;109129;-60
2024/01/07 03:55:13;;;;;;;5.30;4.80;;;;;;;22.01;34.53;93228.66;6149602;28;110170;-60
2024/01/07 03:58:18;;;;;;;5.90;5.07;;;;;;;22.01;34.07;93232.13;6159192;28;109096;-59
2024/01/07 04:01:21;;;;;;;5.13;4.40;;;;;;;21.99;34.36;93217.59;6159744;28;110310;-60
2024/01/07 04:04:24;;;;;;;5.00;4.60;;;;;;;22.01;34.09;93223.34;6179888;28;109382;-59
2024/01/07 04:07:27;;;;;;;4.83;4.37;;;;;;;22.00;34.35;93214.56;6162613;28;109045;-59
2024/01/07 04:10:30;;;;;;;5.10;4.60;;;;;;;22.00;34.60;93211.16;6159768;28;109367;-59
2024/01/07 04:13:35;;;;;;;5.47;4.97;;;;;;;21.99;34.44;93204.28;6162463;28;109450;-59
2024/01/07 04:16:38;;;;;;;5.10;4.20;;;;;;;21.98;34.41;93221.38;6169853;28;111325;-60
2024/01/07 04:19:41;;;;;;;4.80;4.40;;;;;;;21.96;34.25;93212.97;6172217;28;109007;-59
2024/01/07 04:22:44;;;;;;;5.70;5.00;;;;;;;21.96;34.85;93208.41;6184389;28;110261;-59
2024/01/07 04:25:47;;;;;;;4.43;4.03;;;;;;;21.96;34.72;93202.31;6183867;28;109008;-59
2024/01/07 04:28:51;;;;;;;5.20;4.70;;;;;;;21.96;34.47;93200.44;6152731;28;109097;-59
2024/01/07 04:31:54;;;;;;;4.50;4.10;;;;;;;21.95;34.60;93190.91;6158707;28;110822;-59
2024/01/07 04:34:58;;;;;;;4.70;4.27;;;;;;;21.97;34.58;93191.31;6158953;28;109023;-59
2024/01/07 04:38:01;;;;;;;4.23;3.83;;;;;;;21.96;34.61;93187.09;6173945;28;110093;-59
2024/01/07 04:41:07;;;;;;;4.40;4.00;;;;;;;21.98;34.61;93186.75;6176889;28;110058;-59
2024/01/07 04:44:11;;;;;;;5.23;4.60;;;;;;;21.96;34.25;93167.69;6182573;28;109188;-59
2024/01/07 04:47:26;;;;;;;5.63;4.57;;;;;;;22.00;34.45;93177.28;6167279;28;109315;-59
2024/01/07 04:50:29;;;;;;;4.40;4.00;;;;;;;22.00;34.65;93193.28;6171106;28;109274;-58
2024/01/07 04:53:32;;;;;;;4.73;4.27;;;;;;;21.98;34.41;93211.50;6167025;28;111060;-59
2024/01/07 04:56:35;;;;;;;5.60;4.50;;;;;;;21.98;34.43;93192.84;6167907;28;109130;-59
2024/01/07 04:59:39;;;;;;;4.40;4.00;;;;;;;21.96;34.38;93189.78;6172727;28;110085;-59
2024/01/07 05:02:42;;;;;;;4.40;4.00;;;;;;;21.95;34.26;93196.22;6169615;28;109136;-61
2024/01/07 05:05:46;;;;;;;5.17;4.67;;;;;;;21.95;34.62;93201.53;6166377;28;110081;-59
2024/01/07 05:08:49;;;;;;;4.57;4.17;;;;;;;21.92;34.58;93204.13;6173782;28;110295;-59
2024/01/07 05:11:52;;;;;;;5.07;4.60;;;;;;;21.94;34.98;93196.56;6173922;28;109281;-59
2024/01/07 05:14:56;;;;;;;5.83;4.00;;;;;;;21.94;34.56;93191.25;6160703;28;109163;-63
2024/01/07 05:17:59;;;;;;;5.10;4.60;;;;;;;21.94;34.48;93173.38;6174649;28;110309;-63
2024/01/07 05:21:03;;;;;;;5.20;4.70;;;;;;;21.94;34.93;93188.59;6174728;28;109269;-64
2024/01/07 05:24:06;;;;;;;4.90;4.40;;;;;;;21.95;34.71;93190.91;6167284;28;109278;-65
2024/01/07 05:27:10;;;;;;;4.70;4.30;;;;;;;21.94;34.82;93199.22;6159908;28;109972;-63
2024/01/07 05:30:14;;;;;;;4.53;4.13;;;;;;;21.94;34.57;93194.69;6171358;28;109375;-63
2024/01/07 05:33:18;;;;;;;7.03;4.87;;;;;;;21.94;34.51;93202.66;6176254;28;110248;-63
2024/01/07 05:36:21;;;;;;;4.80;4.40;;;;;;;21.95;34.44;93185.56;6164376;28;109281;-63
2024/01/07 05:39:24;;;;;;;4.67;4.27;;;;;;;21.95;34.75;93192.78;6166598;28;109950;-63
2024/01/07 05:42:27;;;;;;;5.07;4.60;;;;;;;21.95;34.70;93187.47;6170080;28;109202;-63
2024/01/07 05:45:32;;;;;;;5.17;4.67;;;;;;;21.91;34.45;93190.06;6171501;28;109290;-64
2024/01/07 05:48:43;;;;;;;4.70;4.30;;;;;;;21.93;34.91;93206.47;6159947;28;109162;-63
2024/01/07 05:51:46;;;;;;;5.13;4.63;;;;;;;21.90;34.94;93209.06;6171582;28;111478;-65
2024/01/07 05:54:49;;;;;;;5.17;4.40;;;;;;;21.90;34.78;93209.81;6169983;28;109582;-64
2024/01/07 05:57:53;;;;;;;4.57;4.17;;;;;;;21.90;34.89;93206.38;6170820;28;109295;-64
2024/01/07 06:00:57;;;;;;;4.97;4.57;;;;;;;21.89;34.30;93218.94;6159213;28;110237;-64
2024/01/07 06:04:00;;;;;;;6.80;4.43;;;;;;;21.89;34.35;93204.84;6171759;28;110035;-64
2024/01/07 06:07:04;;;;;;;5.27;4.70;;;;;;;21.85;34.54;93193.34;6169986;28;109363;-64
2024/01/07 06:10:08;;;;;;;5.10;4.60;;;;;;;21.88;34.92;93204.06;6169892;28;110220;-64
2024/01/07 06:13:11;;;;;;;5.47;4.87;;;;;;;21.90;34.26;93195.72;6161055;28;110180;-63
2024/01/07 06:16:16;;;;;;;4.80;4.33;;;;;;;21.91;34.81;93179.41;6166147;28;109281;-63
2024/01/07 06:19:19;;;;;;;4.97;4.47;;;;;;;21.90;34.64;93180.53;6171846;28;109475;-64
2024/01/07 06:22:23;;;;;;;4.97;4.50;;;;;;;21.91;34.86;93183.97;6165419;28;110104;-63
2024/01/07 06:25:26;;;;;;;5.57;5.00;;;;;;;21.94;34.63;93186.69;6171248;28;109120;-60
2024/01/07 06:28:29;;;;;;;4.80;4.30;;;;;;;21.94;34.28;93189.34;6168041;28;110176;-60
2024/01/07 06:31:34;;;;;;;5.37;4.53;;;;;;;21.91;34.91;93192.72;6166319;28;109181;-59
2024/01/07 06:34:37;;;;;;;7.90;6.80;;;;;;;21.79;35.00;93198.13;6149502;28;110092;-58
2024/01/07 06:37:40;;;;;;;11.30;8.50;;;;;;;21.65;34.71;93182.63;6169130;28;110237;-59
2024/01/07 06:40:43;;;;;;;19.67;18.07;;;;;;;21.60;35.44;93192.78;6167990;28;109243;-59
2024/01/07 06:43:46;;;;;;;19.87;18.17;;;;;;;21.51;35.59;93208.97;6172773;28;109131;-59
2024/01/07 06:46:50;;;;;;;14.63;12.93;;;;;;;21.35;35.01;93216.19;6159273;28;110476;-59
2024/01/07 06:49:53;;;;;;;27.33;24.97;;;;;;;21.21;35.88;93222.72;6184036;28;110404;-59
2024/01/07 06:52:57;;;;;;;13.93;12.73;;;;;;;21.14;35.43;93221.75;6171138;28;109139;-59
2024/01/07 06:56:00;;;;;;;13.10;12.00;;;;;;;21.17;35.40;93237.81;6162802;28;110438;-59
2024/01/07 06:59:03;;;;;;;14.17;12.77;;;;;;;21.20;35.28;93231.03;6169417;28;110118;-59
2024/01/07 07:02:07;;;;;;;13.40;12.30;;;;;;;21.21;35.19;93227.25;6173863;28;110236;-59
2024/01/07 07:05:11;;;;;;;19.13;14.13;;;;;;;20.92;36.00;93213.25;6175084;28;110331;-60
2024/01/07 07:08:14;;;;;;;14.70;13.20;;;;;;;21.06;35.58;93228.81;6169155;28;110777;-60
2024/01/07 07:11:17;;;;;;;12.70;11.50;;;;;;;21.16;35.45;93207.00;6166892;28;110102;-60
2024/01/07 07:14:20;;;;;;;13.47;12.23;;;;;;;21.29;35.56;93205.03;6170313;28;111155;-61
2024/01/07 07:17:25;;;;;;;13.90;12.47;;;;;;;21.35;35.50;93222.28;6168173;28;110081;-60
2024/01/07 07:20:28;;;;;;;16.73;12.20;;;;;;;21.39;35.44;93207.16;6173271;28;110233;-60
2024/01/07 07:23:31;;;;;;;14.47;12.97;;;;;;;21.35;35.43;93195.69;6164853;28;110516;-61
2024/01/07 07:26:35;;;;;;;13.53;12.30;;;;;;;21.30;35.70;93195.91;6160728;28;109061;-61
2024/01/07 07:29:39;;;;;;;13.13;11.93;;;;;;;21.34;35.55;93206.63;6160978;28;110078;-61
2024/01/07 07:32:44;;;;;;;13.77;12.37;;;;;;;21.39;35.31;93211.72;6149916;28;110261;-61
2024/01/07 07:35:50;;;;;;;13.57;12.27;;;;;;;21.40;35.37;93194.63;6170138;28;109254;-63
2024/01/07 07:38:53;;;;;;;13.60;12.30;;;;;;;21.31;36.11;93204.69;6185063;28;109311;-60
2024/01/07 07:41:57;;;;;;;17.20;15.40;;;;;;;21.06;36.57;93204.09;6161320;28;110349;-62
2024/01/07 07:45:00;;;;;;;16.80;13.23;;;;;;;20.75;37.10;93208.25;6163533;28;110584;-63
2024/01/07 07:48:05;;;;;;;15.30;13.80;;;;;;;20.51;37.61;93200.44;6175116;28;109252;-61
2024/01/07 07:51:09;;;;;;;14.63;13.27;;;;;;;20.33;38.05;93199.94;6165242;28;109317;-60
2024/01/07 07:54:12;;;;;;;13.53;12.23;;;;;;;20.93;36.70;93198.06;6161079;28;110376;-60
2024/01/07 07:57:15;;;;;;;12.23;11.00;;;;;;;21.30;36.12;93190.59;6159997;28;109576;-60
2024/01/07 08:00:18;;;;;;;14.80;10.90;;;;;;;21.49;35.77;93172.03;6167441;28;109100;-60
2024/01/07 08:03:23;;;;;;;10.70;9.70;;;;;;;21.65;35.70;93171.22;6181468;28;110261;-60
2024/01/07 08:06:26;;;;;;;11.30;10.30;;;;;;;21.78;35.53;93180.63;6173561;28;109062;-60
2024/01/07 08:09:29;;;;;;;12.13;9.50;;;;;;;21.86;35.40;93185.00;6184773;28;109327;-61
2024/01/07 08:12:32;;;;;;;10.63;9.67;;;;;;;21.81;35.57;93182.56;6187841;28;109202;-62
2024/01/07 08:15:37;;;;;;;10.83;9.20;;;;;;;21.73;35.54;93172.91;6184329;28;110426;-63
2024/01/07 08:18:42;;;;;;;11.20;9.97;;;;;;;21.69;35.85;93182.72;6183289;28;110087;-62
2024/01/07 08:21:46;;;;;;;9.93;8.93;;;;;;;21.69;35.87;93185.38;6188809;28;110228;-63
2024/01/07 08:24:50;;;;;;;10.17;9.17;;;;;;;21.69;36.09;93190.72;6188484;28;109494;-62
2024/01/07 08:27:53;;;;;;;8.93;8.03;;;;;;;21.70;35.76;93186.94;6177408;28;108992;-62
2024/01/07 08:30:56;;;;;;;9.10;8.30;;;;;;;21.70;35.83;93187.69;6188238;28;109236;-62
2024/01/07 08:34:00;;;;;;;8.40;7.60;;;;;;;21.72;35.73;93198.00;6188431;28;109227;-62
2024/01/07 08:37:04;;;;;;;8.57;7.77;;;;;;;21.75;36.06;93197.28;6188222;28;111264;-62
2024/01/07 08:40:09;;;;;;;8.83;7.60;;;;;;;21.87;35.92;93175.91;6177531;28;109228;-62
2024/01/07 08:43:13;;;;;;;8.30;7.50;;;;;;;21.89;35.86;93176.31;6187540;28;110373;-62
2024/01/07 08:46:16;;;;;;;8.33;7.50;;;;;;;21.85;36.15;93180.03;6188046;28;109102;-61
2024/01/07 08:49:20;;;;;;;8.10;7.40;;;;;;;21.84;36.21;93181.13;6188197;28;110343;-60
2024/01/07 08:52:24;;;;;;;8.50;7.70;;;;;;;21.85;36.12;93180.81;6179100;28;109570;-61
2024/01/07 08:55:27;;;;;;;8.20;7.40;;;;;;;21.85;36.07;93183.47;6187788;28;109227;-60
2024/01/07 08:58:31;;;;;;;7.77;7.07;;;;;;;21.87;35.93;93175.91;6187068;28;109169;-59
2024/01/07 09:01:34;;;;;;;7.30;6.70;;;;;;;21.87;36.19;93173.25;6178503;28;110405;-61
2024/01/07 09:04:41;;;;;;;7.60;6.90;;;;;;;21.87;35.80;93172.47;6187355;28;109031;-60
2024/01/07 09:07:44;;;;;;;7.03;6.43;;;;;;;21.86;36.29;93176.25;6163098;28;109053;-61
2024/01/07 09:10:48;;;;;;;7.37;6.67;;;;;;;21.92;36.24;93188.16;6162912;28;109318;-59
2024/01/07 09:13:51;;;;;;;8.07;7.37;;;;;;;21.90;36.06;93183.19;6152036;28;110335;-60
2024/01/07 09:16:54;;;;;;;7.00;6.30;;;;;;;21.95;36.12;93172.25;6163130;28;110233;-60
2024/01/07 09:19:58;;;;;;;7.60;6.67;;;;;;;22.00;35.70;93169.31;6162649;28;109571;-60
2024/01/07 09:23:02;;;;;;;7.57;6.90;;;;;;;22.03;35.49;93175.84;6162313;28;110088;-59
2024/01/07 09:26:05;;;;;;;6.50;5.90;;;;;;;22.04;35.92;93175.50;6152924;28;110473;-60
2024/01/07 09:29:08;;;;;;;7.13;6.53;;;;;;;22.08;35.84;93178.22;6162390;28;109627;-61
2024/01/07 09:32:11;;;;;;;7.30;6.60;;;;;;;22.09;35.75;93177.09;6162598;28;110246;-60
2024/01/07 09:35:16;;;;;;;8.47;5.97;;;;;;;22.17;35.87;93162.00;6158615;28;109813;-60
2024/01/07 09:38:24;;;;;;;7.03;6.40;;;;;;;22.34;35.54;93151.69;6156612;28;109630;-60
2024/01/07 09:41:27;;;;;;;6.80;6.20;;;;;;;22.37;35.66;93160.88;6162220;28;109292;-60
2024/01/07 09:44:31;;;;;;;7.40;6.70;;;;;;;22.46;35.86;93158.75;6161247;28;109118;-60
2024/01/07 09:47:36;;;;;;;6.93;6.30;;;;;;;22.47;35.92;93160.28;6151643;28;109898;-60
2024/01/07 09:50:40;;;;;;;5.97;5.47;;;;;;;22.34;35.93;93162.34;6161784;28;109051;-60
2024/01/07 09:53:49;;;;;;;6.60;6.00;;;;;;;22.29;35.66;93169.84;6162336;28;109068;-61
2024/01/07 09:56:56;;;;;;;6.40;5.80;;;;;;;22.26;35.72;93170.56;6161992;28;109155;-61
2024/01/07 10:00:01;;;;;;;6.17;5.57;;;;;;;22.23;36.20;93157.94;6151280;28;108993;-61
2024/01/07 10:03:05;;;;;;;6.33;5.83;;;;;;;22.22;35.58;93156.41;6161715;28;109195;-61
2024/01/07 10:06:09;;;;;;;6.33;5.83;;;;;;;22.23;36.04;93168.63;6161996;28;110200;-61
2024/01/07 10:09:13;;;;;;;5.90;5.40;;;;;;;22.25;35.60;93163.69;6156773;28;110030;-63
2024/01/07 10:12:16;;;;;;;5.70;5.10;;;;;;;22.27;35.73;93150.78;6156718;28;109286;-62
2024/01/07 10:15:19;;;;;;;5.87;5.37;;;;;;;22.23;35.45;93158.72;6161240;28;109202;-61
2024/01/07 10:18:22;;;;;;;5.33;4.93;;;;;;;22.26;35.84;93157.25;6161786;28;109453;-61
2024/01/07 10:21:27;;;;;;;5.17;4.67;;;;;;;22.27;35.27;93132.13;6151200;28;109398;-62
2024/01/07 10:24:39;;;;;;;5.30;4.80;;;;;;;22.22;35.42;93122.56;6161398;28;109053;-62
2024/01/07 10:27:42;;;;;;;6.07;5.10;;;;;;;22.23;35.97;93125.97;6161626;28;109032;-62
2024/01/07 10:30:49;;;;;;;5.80;5.30;;;;;;;22.18;35.74;93111.06;6161527;28;109837;-61
2024/01/07 10:33:53;;;;;;;6.50;5.07;;;;;;;22.19;35.72;93125.16;6150558;28;110248;-61
2024/01/07 10:37:00;;;;;;;4.93;4.50;;;;;;;22.18;35.78;93110.25;6161573;28;109065;-63
2024/01/07 10:40:04;;;;;;;5.10;4.60;;;;;;;22.16;35.58;93107.97;6161634;28;110084;-62
2024/01/07 10:43:07;;;;;;;5.43;4.70;;;;;;;22.17;35.57;93106.06;6174808;28;109241;-61
2024/01/07 10:46:13;;;;;;;6.60;4.70;;;;;;;22.16;35.48;93099.19;6180053;28;109829;-64
2024/01/07 10:49:21;;;;;;;6.97;4.33;;;;;;;22.17;35.78;93100.72;6185216;28;110235;-62
2024/01/07 10:52:28;;;;;;;4.53;4.13;;;;;;;22.16;36.17;93099.19;6184787;28;109254;-62
2024/01/07 10:55:36;;;;;;;5.23;4.73;;;;;;;22.13;36.17;93107.91;6176610;28;110563;-62
2024/01/07 10:58:40;;;;;;;6.07;4.73;;;;;;;22.13;36.07;93116.66;6185110;28;109193;-62
2024/01/07 11:01:44;;;;;;;7.30;4.80;;;;;;;22.15;36.04;93108.31;6185396;28;109096;-62
2024/01/07 11:04:55;;;;;;;5.00;4.43;;;;;;;22.19;36.17;93104.59;6185401;28;109531;-62
2024/01/07 11:08:06;;;;;;;5.47;4.97;;;;;;;22.26;35.94;93109.28;6175332;28;109161;-62
2024/01/07 11:11:20;;;;;;;7.90;4.77;;;;;;;22.31;35.69;93106.31;6185440;28;110167;-62
2024/01/07 11:14:37;;;;;;;5.63;5.07;;;;;;;22.35;35.52;93093.84;6185369;28;109203;-62
2024/01/07 11:17:45;;;;;;;6.00;5.50;;;;;;;22.38;35.93;93096.56;6179030;28;109145;-62
2024/01/07 11:20:49;;;;;;;10.60;9.10;;;;;;;22.46;35.38;93108.13;6181946;28;110579;-61
2024/01/07 11:23:54;;;;;;;13.93;12.53;;;;;;;22.52;35.48;93106.72;6181556;28;109125;-61
2024/01/07 11:27:02;;;;;;;19.20;17.30;;;;;;;22.58;36.38;93105.31;6185289;28;109096;-62
2024/01/07 11:30:09;;;;;;;34.83;31.77;;;;;;;22.68;37.35;93104.72;6174102;28;110722;-62
2024/01/07 11:33:15;;;;;;;39.43;35.83;;;;;;;22.84;38.17;93106.47;6184499;28;109612;-62
2024/01/07 11:36:19;;;;;;;44.20;40.17;;;;;;;22.84;38.36;93093.91;6173956;28;109099;-62
2024/01/07 11:39:24;;;;;;;46.50;42.10;;;;;;;22.85;37.93;93092.78;6168233;28;110080;-62
2024/01/07 11:42:27;;;;;;;48.30;43.60;;;;;;;22.79;38.39;93091.53;6158334;28;110248;-64
2024/01/07 11:45:31;;;;;;;50.83;45.57;;;;;;;22.81;38.64;93102.63;6165112;28;110867;-62
2024/01/07 11:48:35;;;;;;;49.97;45.17;;;;;;;22.70;38.89;93102.47;6170694;28;109077;-62
2024/01/07 11:51:38;;;;;;;48.30;43.73;;;;;;;22.68;39.33;93098.59;6166147;28;109465;-62
2024/01/07 11:54:43;;;;;;;47.37;43.07;;;;;;;22.63;39.25;93094.34;6157365;28;109102;-62
2024/01/07 11:57:46;;;;;;;48.20;43.47;;;;;;;22.66;39.39;93106.94;6166653;28;110259;-62
2024/01/07 12:00:49;;;;;;;45.13;41.03;;;;;;;22.63;39.06;93096.22;6179401;28;109286;-60
2024/01/07 12:03:53;;;;;;;46.73;42.20;;;;;;;22.59;38.89;93098.84;6153445;28;109363;-60
2024/01/07 12:06:57;;;;;;;44.47;40.37;;;;;;;22.57;38.73;93106.44;6161266;28;109149;-61
2024/01/07 12:10:01;;;;;;;41.27;37.40;;;;;;;22.55;39.16;93105.22;6168449;28;110918;-62
2024/01/07 12:13:06;;;;;;;40.70;36.90;;;;;;;22.58;39.11;93102.63;6166866;28;109201;-62
2024/01/07 12:16:10;;;;;;;39.80;36.30;;;;;;;22.51;38.58;93099.81;6155485;28;110163;-65
2024/01/07 12:19:14;;;;;;;39.07;35.33;;;;;;;22.44;38.90;93099.69;6165542;28;110176;-66
2024/01/07 12:22:18;;;;;;;36.87;33.30;;;;;;;22.39;38.96;93103.44;6168027;28;109045;-65
2024/01/07 12:25:24;;;;;;;36.37;32.77;;;;;;;22.39;39.04;93105.34;6163402;28;109118;-64
2024/01/07 12:28:28;;;;;;;34.93;31.83;;;;;;;22.36;38.59;93108.72;6164998;28;109122;-64
2024/01/07 12:31:32;;;;;;;31.80;28.80;;;;;;;22.34;38.67;93105.59;6168831;28;110175;-65
2024/01/07 12:34:37;;;;;;;31.30;28.20;;;;;;;22.33;38.51;93104.06;6165217;28;110259;-66
2024/01/07 12:37:41;;;;;;;30.73;27.80;;;;;;;22.43;38.41;93108.81;6160050;28;111426;-65
2024/01/07 12:40:45;;;;;;;28.47;25.77;;;;;;;22.52;38.58;93119.28;6163229;28;109312;-66
2024/01/07 12:43:48;;;;;;;25.87;23.10;;;;;;;22.40;38.90;93114.88;6164998;28;109505;-63
2024/01/07 12:46:52;;;;;;;24.17;21.70;;;;;;;22.35;38.90;93107.19;6173503;28;110001;-63
2024/01/07 12:49:58;;;;;;;22.03;19.73;;;;;;;22.34;38.84;93111.72;6152910;28;110152;-65
2024/01/07 12:53:01;;;;;;;24.70;19.50;;;;;;;22.38;38.67;93103.81;6174053;28;110205;-61
2024/01/07 12:56:07;;;;;;;21.07;18.87;;;;;;;22.63;38.99;93110.34;6164465;28;110759;-62
2024/01/07 12:59:10;;;;;;;20.27;18.17;;;;;;;22.71;38.79;93103.25;6161970;28;110672;-63
2024/01/07 13:02:13;;;;;;;20.10;18.03;;;;;;;22.77;38.68;93117.03;6158797;28;110216;-63
2024/01/07 13:05:16;;;;;;;19.67;17.77;;;;;;;22.79;39.27;93115.53;6167699;28;110199;-62
2024/01/07 13:08:22;;;;;;;18.03;16.20;;;;;;;22.83;39.12;93124.34;6168114;28;109097;-63
2024/01/07 13:11:27;;;;;;;18.10;16.23;;;;;;;22.85;38.63;93119.47;6163877;28;110087;-60
2024/01/07 13:14:30;;;;;;;16.40;14.90;;;;;;;22.91;39.26;93117.25;6162534;28;109149;-62
2024/01/07 13:17:33;;;;;;;17.23;15.53;;;;;;;22.92;38.88;93126.81;6173914;28;110333;-62
2024/01/07 13:20:39;;;;;;;16.73;15.10;;;;;;;22.80;39.29;93119.75;6169098;28;109397;-63
2024/01/07 13:23:43;;;;;;;15.50;13.90;;;;;;;22.85;39.27;93116.81;6166895;28;109120;-62
2024/01/07 13:26:48;;;;;;;16.13;14.23;;;;;;;22.92;38.91;93124.13;6171476;28;110872;-59
2024/01/07 13:29:51;;;;;;;15.10;13.80;;;;;;;22.91;39.14;93122.59;6170250;28;109405;-59
2024/01/07 13:32:56;;;;;;;14.43;12.93;;;;;;;22.93;39.57;93131.78;6173743;28;109256;-59
2024/01/07 13:36:02;;;;;;;15.93;13.67;;;;;;;22.97;39.14;93126.47;6160055;28;109871;-59
2024/01/07 13:39:07;;;;;;;17.60;13.70;;;;;;;22.98;39.56;93128.03;6173474;28;109301;-59
2024/01/07 13:42:12;;;;;;;15.80;13.93;;;;;;;22.98;39.66;93128.03;6176667;28;109582;-59
2024/01/07 13:45:16;;;;;;;13.97;12.70;;;;;;;22.99;39.61;93130.34;6157998;28;109272;-59
2024/01/07 13:48:19;;;;;;;14.07;12.10;;;;;;;23.01;39.36;93132.63;6158595;28;109446;-59
2024/01/07 13:51:22;;;;;;;13.13;11.93;;;;;;;22.94;39.73;93121.88;6174444;28;110031;-59
2024/01/07 13:54:26;;;;;;;11.87;10.77;;;;;;;22.81;39.13;93128.53;6167104;28;109159;-59
2024/01/07 13:57:30;;;;;;;12.70;11.40;;;;;;;22.88;39.04;93124.09;6156477;28;110265;-59
2024/01/07 14:00:34;;;;;;;12.33;11.03;;;;;;;22.96;39.22;93130.28;6166516;28;110040;-59
2024/01/07 14:03:37;;;;;;;14.10;10.47;;;;;;;22.96;39.22;93119.63;6172684;28;110183;-60
2024/01/07 14:06:40;;;;;;;11.70;10.40;;;;;;;23.00;39.53;93131.88;6167414;28;109288;-60
2024/01/07 14:09:43;;;;;;;12.77;9.63;;;;;;;22.88;39.50;93129.41;6156083;22;109736;-80